Time;durP1;ratioP1;P1;durP2;ratioP2;P2;SDS_P1;SDS_P2;PMS_P1;PMS_P2;Temp;Humidity;BMP_temperature;BMP_pressure;BME280_temperature;BME280_humidity;BME280_pressure;Samples;Min_cycle;Max_cycle;Signal;HPM_P1;HPM_P2
2022/09/14 00:00:49;;;;;;;7.72;6.53;;;;;;;;;;5019625;28;20555;-90
2022/09/14 00:03:15;;;;;;;12.38;6.43;;;;;;;;;;5018834;28;20042;-90
2022/09/14 00:05:42;;;;;;;15.07;6.57;;;;;;;;;;5029043;28;20093;-90
2022/09/14 00:08:08;;;;;;;8.88;6.75;;;;;;;;;;5009801;28;20095;-90
2022/09/14 00:10:37;;;;;;;11.30;7.20;;;;;;;;;;5030726;28;20034;-90
2022/09/14 00:13:03;;;;;;;9.18;5.85;;;;;;;;;;5040671;28;20018;-89
2022/09/14 00:15:29;;;;;;;8.10;6.25;;;;;;;;;;5020110;28;20022;-90
2022/09/14 00:17:55;;;;;;;9.65;6.95;;;;;;;;;;5026746;28;20027;-89
2022/09/14 00:20:21;;;;;;;12.15;6.93;;;;;;;;;;5014840;28;20026;-89
2022/09/14 00:22:47;;;;;;;9.30;6.60;;;;;;;;;;5029147;28;20034;-90
2022/09/14 00:25:13;;;;;;;12.93;6.32;;;;;;;;;;5019097;28;20470;-89
2022/09/14 00:27:39;;;;;;;10.75;6.50;;;;;;;;;;5041447;28;20030;-90
2022/09/14 00:30:06;;;;;;;16.88;10.65;;;;;;;;;;5017183;28;20026;-90
2022/09/14 00:32:32;;;;;;;11.80;8.43;;;;;;;;;;5027127;28;20025;-89
2022/09/14 00:34:58;;;;;;;12.52;6.72;;;;;;;;;;5030426;28;20014;-89
2022/09/14 00:37:24;;;;;;;11.68;7.57;;;;;;;;;;5045343;28;20029;-89
2022/09/14 00:39:50;;;;;;;12.57;6.75;;;;;;;;;;5027990;28;20835;-89
2022/09/14 00:42:18;;;;;;;11.00;7.97;;;;;;;;;;5014895;28;20033;-90
2022/09/14 00:44:47;;;;;;;9.57;7.05;;;;;;;;;;5009282;28;20068;-90
2022/09/14 00:47:14;;;;;;;9.60;8.05;;;;;;;;;;5016904;28;20029;-90
2022/09/14 00:49:42;;;;;;;11.68;9.45;;;;;;;;;;5033794;28;20114;-90
2022/09/14 00:52:26;;;;;;;11.57;9.88;;;;;;;;;;5006204;28;20064;-89
2022/09/14 00:54:51;;;;;;;;;;;;;;;;;;5020621;28;20030;-89
2022/09/14 00:57:18;;;;;;;13.88;8.57;;;;;;;;;;5026172;28;19960;-88
2022/09/14 00:59:45;;;;;;;10.13;9.07;;;;;;;;;;5019038;28;20018;-91
2022/09/14 01:02:15;;;;;;;10.00;8.13;;;;;;;;;;5030258;28;20044;-91
2022/09/14 01:04:42;;;;;;;13.00;9.05;;;;;;;;;;5020369;28;20026;-91
2022/09/14 01:07:15;;;;;;;16.58;12.40;;;;;;;;;;5031825;28;20066;-89
2022/09/14 01:09:41;;;;;;;15.52;10.82;;;;;;;;;;5037642;28;20053;-90
2022/09/14 01:12:21;;;;;;;17.88;11.07;;;;;;;;;;5018424;28;20021;-91
2022/09/14 01:14:47;;;;;;;11.70;8.65;;;;;;;;;;5032845;28;20033;-90
2022/09/14 01:17:29;;;;;;;23.40;11.75;;;;;;;;;;5032128;28;20018;-91
2022/09/14 01:20:19;;;;;;;10.38;7.05;;;;;;;;;;5032377;28;20025;-90
2022/09/14 01:22:51;;;;;;;14.20;7.03;;;;;;;;;;5036606;28;20038;-89
2022/09/14 01:25:26;;;;;;;9.40;6.32;;;;;;;;;;5019226;28;20060;-90
2022/09/14 01:27:54;;;;;;;10.25;7.28;;;;;;;;;;5026405;28;20025;-90
2022/09/14 01:30:22;;;;;;;11.38;7.40;;;;;;;;;;5037350;28;20021;-91
2022/09/14 01:32:51;;;;;;;11.05;8.20;;;;;;;;;;5019104;28;20029;-91
2022/09/14 01:35:17;;;;;;;12.07;7.57;;;;;;;;;;5028566;28;20033;-90
2022/09/14 01:37:52;;;;;;;13.38;7.47;;;;;;;;;;5024732;28;20033;-89
2022/09/14 01:40:24;;;;;;;13.15;8.07;;;;;;;;;;5017133;28;20422;-90
2022/09/14 01:42:52;;;;;;;13.63;7.68;;;;;;;;;;5029157;28;20559;-90
2022/09/14 01:45:20;;;;;;;14.38;8.52;;;;;;;;;;5004880;28;20025;-90
2022/09/14 01:47:48;;;;;;;14.02;8.35;;;;;;;;;;5020010;28;20073;-91
2022/09/14 01:50:17;;;;;;;12.25;8.13;;;;;;;;;;5028502;28;20058;-89
2022/09/14 01:52:45;;;;;;;12.75;7.25;;;;;;;;;;5023940;28;20029;-90
2022/09/14 01:55:28;;;;;;;10.05;7.82;;;;;;;;;;5018965;28;20018;-90
2022/09/14 01:57:57;;;;;;;10.80;9.07;;;;;;;;;;5023461;28;20033;-91
2022/09/14 02:00:24;;;;;;;14.00;9.23;;;;;;;;;;5018178;28;20041;-89
2022/09/14 02:02:58;;;;;;;12.88;7.80;;;;;;;;;;5021911;28;20049;-89
2022/09/14 02:05:37;;;;;;;10.68;7.30;;;;;;;;;;5029185;28;20026;-90
2022/09/14 02:08:03;;;;;;;10.05;7.30;;;;;;;;;;5013033;28;20519;-90
2022/09/14 02:10:30;;;;;;;15.45;8.18;;;;;;;;;;5034338;28;20010;-90
2022/09/14 02:12:56;;;;;;;10.73;7.65;;;;;;;;;;5040935;28;20022;-89
2022/09/14 02:15:24;;;;;;;15.57;9.30;;;;;;;;;;5017440;28;20764;-90
2022/09/14 02:17:50;;;;;;;17.55;8.70;;;;;;;;;;5034155;28;20018;-89
2022/09/14 02:20:26;;;;;;;12.02;7.65;;;;;;;;;;5035800;28;20030;-89
2022/09/14 02:22:52;;;;;;;17.10;8.07;;;;;;;;;;5012431;28;20062;-90
2022/09/14 02:25:20;;;;;;;15.68;7.18;;;;;;;;;;5024412;28;20030;-88
2022/09/14 02:27:47;;;;;;;9.63;6.65;;;;;;;;;;5055127;28;20028;-86
2022/09/14 02:30:14;;;;;;;12.85;7.60;;;;;;;;;;5017677;28;20465;-90
2022/09/14 02:32:58;;;;;;;10.70;7.90;;;;;;;;;;5012933;28;20109;-89
2022/09/14 02:35:33;;;;;;;15.77;7.97;;;;;;;;;;5000936;28;20410;-91
2022/09/14 02:38:14;;;;;;;13.15;8.63;;;;;;;;;;4999055;28;20058;-90
2022/09/14 02:40:43;;;;;;;14.77;7.78;;;;;;;;;;5012540;28;20168;-90
2022/09/14 02:43:12;;;;;;;11.50;8.00;;;;;;;;;;5022814;28;20515;-91
2022/09/14 02:45:42;;;;;;;9.05;7.43;;;;;;;;;;5037081;28;20026;-92
2022/09/14 02:48:20;;;;;;;12.05;7.90;;;;;;;;;;5024701;28;20389;-91
2022/09/14 02:50:51;;;;;;;11.77;8.77;;;;;;;;;;5022921;28;20121;-91
2022/09/14 02:53:30;;;;;;;9.30;7.93;;;;;;;;;;5016696;28;20033;-90
2022/09/14 02:55:58;;;;;;;13.45;9.85;;;;;;;;;;5034924;28;20029;-91
2022/09/14 02:58:24;;;;;;;17.50;9.88;;;;;;;;;;5020317;28;20030;-91
2022/09/14 03:00:51;;;;;;;13.52;9.63;;;;;;;;;;5015693;28;20021;-92
2022/09/14 03:03:19;;;;;;;16.05;8.45;;;;;;;;;;5018022;28;20034;-91
2022/09/14 03:05:46;;;;;;;15.52;9.02;;;;;;;;;;5013768;28;20046;-91
2022/09/14 03:08:12;;;;;;;18.17;9.77;;;;;;;;;;5029640;28;20036;-92
2022/09/14 03:10:41;;;;;;;14.35;9.57;;;;;;;;;;5017128;28;20073;-91
2022/09/14 03:13:07;;;;;;;21.02;10.75;;;;;;;;;;5027645;28;20018;-92
2022/09/14 03:15:33;;;;;;;15.23;10.00;;;;;;;;;;5022497;28;20025;-91
2022/09/14 03:17:59;;;;;;;16.38;10.68;;;;;;;;;;5029488;28;20013;-91
2022/09/14 03:20:28;;;;;;;14.05;9.90;;;;;;;;;;5023037;28;20022;-93
2022/09/14 03:22:54;;;;;;;15.05;10.63;;;;;;;;;;5030778;28;20034;-92
2022/09/14 03:25:24;;;;;;;22.75;10.70;;;;;;;;;;5027062;28;20160;-92
2022/09/14 03:27:50;;;;;;;15.45;11.27;;;;;;;;;;5028521;28;20064;-91
2022/09/14 03:30:17;;;;;;;20.75;10.05;;;;;;;;;;5022841;28;20112;-92
2022/09/14 03:32:43;;;;;;;16.20;11.65;;;;;;;;;;5044039;28;20016;-87
2022/09/14 03:35:09;;;;;;;20.83;12.43;;;;;;;;;;5049640;28;20030;-91
2022/09/14 03:37:39;;;;;;;19.17;12.68;;;;;;;;;;5021361;28;20022;-91
2022/09/14 03:40:06;;;;;;;19.75;14.02;;;;;;;;;;5030246;28;20021;-90
2022/09/14 03:42:32;;;;;;;21.55;14.68;;;;;;;;;;5027597;28;20106;-91
2022/09/14 03:44:58;;;;;;;23.67;14.20;;;;;;;;;;5011654;28;20027;-90
2022/09/14 03:47:25;;;;;;;18.17;14.23;;;;;;;;;;5028554;28;20029;-90
2022/09/14 03:49:51;;;;;;;21.13;16.25;;;;;;;;;;5020839;28;20026;-89
2022/09/14 03:52:17;;;;;;;27.20;15.25;;;;;;;;;;5042094;28;20026;-90
2022/09/14 03:54:43;;;;;;;18.42;13.85;;;;;;;;;;5024533;28;20113;-90
2022/09/14 03:57:09;;;;;;;25.73;15.25;;;;;;;;;;5014659;28;20029;-90
2022/09/14 03:59:36;;;;;;;21.83;14.70;;;;;;;;;;5025497;28;20330;-90
2022/09/14 04:02:02;;;;;;;23.30;12.25;;;;;;;;;;5015564;28;20038;-90
2022/09/14 04:04:28;;;;;;;21.23;12.23;;;;;;;;;;5009970;28;20013;-90
2022/09/14 04:06:54;;;;;;;20.13;13.30;;;;;;;;;;5028426;28;20406;-90
2022/09/14 04:09:20;;;;;;;16.73;13.95;;;;;;;;;;5027282;28;20041;-91
2022/09/14 04:11:47;;;;;;;23.65;15.63;;;;;;;;;;5021960;28;20021;-91
2022/09/14 04:14:13;;;;;;;23.15;15.10;;;;;;;;;;5033122;28;20457;-90
2022/09/14 04:16:40;;;;;;;24.23;16.33;;;;;;;;;;5023965;28;20026;-90
2022/09/14 04:19:06;;;;;;;20.42;17.02;;;;;;;;;;5014980;28;20018;-90
2022/09/14 04:21:33;;;;;;;23.70;16.90;;;;;;;;;;5014786;28;20041;-90
2022/09/14 04:23:59;;;;;;;27.45;17.10;;;;;;;;;;5026401;28;20389;-89
2022/09/14 04:26:26;;;;;;;26.20;17.50;;;;;;;;;;5018040;28;20022;-90
2022/09/14 04:28:52;;;;;;;26.00;17.40;;;;;;;;;;5024075;28;20021;-90
2022/09/14 04:31:18;;;;;;;27.10;16.75;;;;;;;;;;5033016;28;20362;-89
2022/09/14 04:33:46;;;;;;;21.67;16.17;;;;;;;;;;5032404;28;20026;-90
2022/09/14 04:36:13;;;;;;;31.55;16.42;;;;;;;;;;5029013;28;20026;-91
2022/09/14 04:38:40;;;;;;;21.98;16.50;;;;;;;;;;5013969;28;20018;-89
2022/09/14 04:41:25;;;;;;;24.00;15.50;;;;;;;;;;5030435;28;20031;-90
2022/09/14 04:43:51;;;;;;;21.08;15.23;;;;;;;;;;5025667;28;20049;-90
2022/09/14 04:46:19;;;;;;;30.83;14.93;;;;;;;;;;5012122;28;20029;-90
2022/09/14 04:48:45;;;;;;;24.05;14.95;;;;;;;;;;5019168;28;20018;-90
2022/09/14 04:51:13;;;;;;;25.23;16.58;;;;;;;;;;5029636;28;20133;-90
2022/09/14 04:53:39;;;;;;;18.63;14.95;;;;;;;;;;5014954;28;20033;-90
2022/09/14 04:56:07;;;;;;;18.27;13.82;;;;;;;;;;5034409;28;20059;-91
2022/09/14 04:58:33;;;;;;;24.45;13.25;;;;;;;;;;5010041;28;20441;-89
2022/09/14 05:01:07;;;;;;;19.27;13.15;;;;;;;;;;5010876;28;20041;-90
2022/09/14 05:03:33;;;;;;;15.65;11.27;;;;;;;;;;5022656;28;20546;-91
2022/09/14 05:06:03;;;;;;;18.73;11.93;;;;;;;;;;5030935;28;20050;-91
2022/09/14 05:08:30;;;;;;;54.10;42.72;;;;;;;;;;5007302;28;20025;-90
2022/09/14 05:11:00;;;;;;;27.45;16.73;;;;;;;;;;5031724;28;20018;-90
2022/09/14 05:13:26;;;;;;;28.42;15.73;;;;;;;;;;5024523;28;20029;-90
2022/09/14 05:15:52;;;;;;;21.45;14.30;;;;;;;;;;5021841;28;21012;-90
2022/09/14 05:18:18;;;;;;;20.52;14.90;;;;;;;;;;5030671;28;20030;-89
2022/09/14 05:20:44;;;;;;;24.33;17.50;;;;;;;;;;5023634;28;20022;-88
2022/09/14 05:23:10;;;;;;;23.08;15.43;;;;;;;;;;5029085;28;20550;-90
2022/09/14 05:25:36;;;;;;;26.42;21.58;;;;;;;;;;5012995;28;20033;-90
2022/09/14 05:28:02;;;;;;;27.85;16.77;;;;;;;;;;5046335;28;20029;-91
2022/09/14 05:30:28;;;;;;;33.28;15.88;;;;;;;;;;5027446;28;20113;-90
2022/09/14 05:32:54;;;;;;;37.80;20.10;;;;;;;;;;5025740;28;20021;-90
2022/09/14 05:35:20;;;;;;;36.40;21.88;;;;;;;;;;5034940;28;20531;-90
2022/09/14 05:37:47;;;;;;;29.45;20.13;;;;;;;;;;5020087;28;20370;-91
2022/09/14 05:40:13;;;;;;;31.15;19.90;;;;;;;;;;5020632;28;20025;-92
2022/09/14 05:42:39;;;;;;;26.67;18.80;;;;;;;;;;5028419;28;20374;-89
2022/09/14 05:45:05;;;;;;;21.38;14.77;;;;;;;;;;5026732;28;20450;-89
2022/09/14 05:47:31;;;;;;;14.30;12.63;;;;;;;;;;5034883;28;20018;-90
2022/09/14 05:49:57;;;;;;;21.02;12.88;;;;;;;;;;5045593;28;20016;-89
2022/09/14 05:52:24;;;;;;;15.60;11.75;;;;;;;;;;5031703;28;20421;-90
2022/09/14 05:54:50;;;;;;;17.58;9.73;;;;;;;;;;5034026;28;20080;-92
2022/09/14 05:57:16;;;;;;;13.70;9.73;;;;;;;;;;5024184;28;20073;-92
2022/09/14 05:59:42;;;;;;;20.20;10.38;;;;;;;;;;5013847;28;20076;-90
2022/09/14 06:02:09;;;;;;;17.92;9.52;;;;;;;;;;5033700;28;20036;-92
2022/09/14 06:04:35;;;;;;;16.35;10.45;;;;;;;;;;5039274;28;20449;-92
2022/09/14 06:07:02;;;;;;;22.75;13.30;;;;;;;;;;5019277;28;20053;-91
2022/09/14 06:09:28;;;;;;;20.35;13.23;;;;;;;;;;5019916;28;20106;-91
2022/09/14 06:11:54;;;;;;;21.73;13.80;;;;;;;;;;5043307;28;20018;-91
2022/09/14 06:14:20;;;;;;;16.25;11.88;;;;;;;;;;5032530;28;20083;-90
2022/09/14 06:16:46;;;;;;;22.75;14.40;;;;;;;;;;5017889;28;20121;-90
2022/09/14 06:19:14;;;;;;;30.17;14.50;;;;;;;;;;5030629;28;20096;-90
2022/09/14 06:21:40;;;;;;;20.08;12.95;;;;;;;;;;5023978;28;20037;-92
2022/09/14 06:24:06;;;;;;;26.80;13.82;;;;;;;;;;5026702;28;20029;-91
2022/09/14 06:26:32;;;;;;;21.23;13.57;;;;;;;;;;5022684;28;20073;-90
2022/09/14 06:28:58;;;;;;;17.52;12.70;;;;;;;;;;5034611;28;20504;-90
2022/09/14 06:31:25;;;;;;;21.65;13.65;;;;;;;;;;5000021;28;20035;-90
2022/09/14 06:33:51;;;;;;;30.38;15.05;;;;;;;;;;5017602;28;20018;-91
2022/09/14 06:36:19;;;;;;;41.33;15.77;;;;;;;;;;5042587;28;20120;-91
2022/09/14 06:38:45;;;;;;;27.63;13.57;;;;;;;;;;5019666;28;20023;-92
2022/09/14 06:41:13;;;;;;;20.92;12.85;;;;;;;;;;5026880;28;20108;-90
2022/09/14 06:43:40;;;;;;;25.40;14.80;;;;;;;;;;5023820;28;20552;-90
2022/09/14 06:46:15;;;;;;;20.65;15.98;;;;;;;;;;5030260;28;20477;-89
2022/09/14 06:48:46;;;;;;;32.00;14.30;;;;;;;;;;5038919;28;20480;-89
2022/09/14 06:51:17;;;;;;;29.35;13.18;;;;;;;;;;5025037;28;20105;-90
2022/09/14 06:53:43;;;;;;;28.40;14.65;;;;;;;;;;5017176;28;20121;-90
2022/09/14 06:56:10;;;;;;;20.00;14.27;;;;;;;;;;5027235;28;20091;-88
2022/09/14 06:58:36;;;;;;;25.10;15.30;;;;;;;;;;5030680;28;20021;-90
2022/09/14 07:01:03;;;;;;;29.88;18.17;;;;;;;;;;5022896;28;20017;-90
2022/09/14 07:03:30;;;;;;;30.20;14.82;;;;;;;;;;5031019;28;20030;-90
2022/09/14 07:06:14;;;;;;;19.92;13.80;;;;;;;;;;5016597;28;20041;-91
2022/09/14 07:08:40;;;;;;;20.10;12.40;;;;;;;;;;5010462;28;20022;-90
2022/09/14 07:11:07;;;;;;;21.75;12.73;;;;;;;;;;5033100;28;20102;-91
2022/09/14 07:13:34;;;;;;;23.40;11.70;;;;;;;;;;5035549;28;20415;-92
2022/09/14 07:16:02;;;;;;;18.13;12.48;;;;;;;;;;5030949;28;20180;-90
2022/09/14 07:18:30;;;;;;;26.70;12.70;;;;;;;;;;5036410;28;20056;-91
2022/09/14 07:21:00;;;;;;;24.73;13.48;;;;;;;;;;5026314;28;20086;-92
2022/09/14 07:23:26;;;;;;;23.38;14.35;;;;;;;;;;5038397;28;20500;-92
2022/09/14 07:26:10;;;;;;;28.75;15.57;;;;;;;;;;5028558;28;20026;-91
2022/09/14 07:28:38;;;;;;;19.35;13.50;;;;;;;;;;5021967;28;20030;-91
2022/09/14 07:31:04;;;;;;;19.98;12.38;;;;;;;;;;5032095;28;20427;-91
2022/09/14 07:33:31;;;;;;;25.98;11.65;;;;;;;;;;5037665;28;20013;-92
2022/09/14 07:36:04;;;;;;;12.77;7.95;;;;;;;;;;5011336;28;20022;-91
2022/09/14 07:38:30;;;;;;;10.77;8.55;;;;;;;;;;5028154;28;20061;-92
2022/09/14 07:41:00;;;;;;;11.65;8.55;;;;;;;;;;5009562;28;20465;-92
2022/09/14 07:43:27;;;;;;;15.80;8.50;;;;;;;;;;5046200;28;20109;-91
2022/09/14 07:45:53;;;;;;;24.58;10.13;;;;;;;;;;5015327;28;20421;-92
2022/09/14 07:48:19;;;;;;;13.88;7.97;;;;;;;;;;5016616;28;20037;-91
2022/09/14 07:50:46;;;;;;;12.98;8.10;;;;;;;;;;5014471;28;20030;-91
2022/09/14 07:53:13;;;;;;;12.38;7.20;;;;;;;;;;5027931;28;20032;-91
2022/09/14 07:55:39;;;;;;;10.50;7.10;;;;;;;;;;5033731;28;20107;-92
2022/09/14 07:58:06;;;;;;;13.90;6.47;;;;;;;;;;5016420;28;20092;-92
2022/09/14 08:00:32;;;;;;;14.02;7.50;;;;;;;;;;5013479;28;20094;-92
2022/09/14 08:02:58;;;;;;;16.67;7.53;;;;;;;;;;5032715;28;20038;-92
2022/09/14 08:05:25;;;;;;;12.20;6.57;;;;;;;;;;5042261;28;20026;-92
2022/09/14 08:07:57;;;;;;;9.32;6.28;;;;;;;;;;5016808;28;20018;-91
2022/09/14 08:10:24;;;;;;;12.60;6.47;;;;;;;;;;5028564;28;20022;-92
2022/09/14 08:12:54;;;;;;;10.52;6.90;;;;;;;;;;5028634;28;20026;-91
2022/09/14 08:15:23;;;;;;;16.08;6.18;;;;;;;;;;5008010;28;20025;-91
2022/09/14 08:17:49;;;;;;;12.90;6.03;;;;;;;;;;5018497;28;20018;-90
2022/09/14 08:20:16;;;;;;;14.35;5.82;;;;;;;;;;5028275;28;20026;-91
2022/09/14 08:22:43;;;;;;;9.77;5.82;;;;;;;;;;5021099;28;20026;-90
2022/09/14 08:25:09;;;;;;;10.55;5.70;;;;;;;;;;5038091;28;20025;-90
2022/09/14 08:27:36;;;;;;;11.63;6.07;;;;;;;;;;5019570;28;20022;-91
2022/09/14 08:30:02;;;;;;;11.57;5.70;;;;;;;;;;5024513;28;20021;-91
2022/09/14 08:32:28;;;;;;;12.50;5.30;;;;;;;;;;5031274;28;20029;-92
2022/09/14 08:34:54;;;;;;;10.55;5.45;;;;;;;;;;5014867;28;20112;-92
2022/09/14 08:37:21;;;;;;;7.30;5.20;;;;;;;;;;5013564;28;20029;-92
2022/09/14 08:39:47;;;;;;;11.13;6.10;;;;;;;;;;5013208;28;20014;-91
2022/09/14 08:42:21;;;;;;;10.25;5.60;;;;;;;;;;5018336;28;20034;-91
2022/09/14 08:45:02;;;;;;;11.98;5.72;;;;;;;;;;5030402;28;20026;-90
2022/09/14 08:47:33;;;;;;;7.63;4.63;;;;;;;;;;5040263;28;20165;-92
2022/09/14 08:50:11;;;;;;;14.43;5.60;;;;;;;;;;5017457;28;20026;-90
2022/09/14 08:52:41;;;;;;;13.32;6.90;;;;;;;;;;5014027;28;20041;-91
2022/09/14 08:55:29;;;;;;;14.68;6.70;;;;;;;;;;5013754;28;20026;-90
2022/09/14 08:58:04;;;;;;;12.05;5.32;;;;;;;;;;5029813;28;20477;-91
2022/09/14 09:00:37;;;;;;;12.52;5.20;;;;;;;;;;5035305;28;20022;-91
2022/09/14 09:03:12;;;;;;;12.32;4.55;;;;;;;;;;5035033;28;20064;-90
2022/09/14 09:05:38;;;;;;;7.63;4.03;;;;;;;;;;5032508;28;20058;-92
2022/09/14 09:08:19;;;;;;;10.90;4.45;;;;;;;;;;5028774;28;20018;-91
2022/09/14 09:10:47;;;;;;;11.52;4.72;;;;;;;;;;5042429;28;20030;-92
2022/09/14 09:13:19;;;;;;;11.38;5.38;;;;;;;;;;5053856;28;20111;-91
2022/09/14 09:15:52;;;;;;;16.50;5.63;;;;;;;;;;5026549;28;20087;-91
2022/09/14 09:18:37;;;;;;;12.77;5.25;;;;;;;;;;5029422;28;20091;-91
2022/09/14 09:21:08;;;;;;;10.02;5.32;;;;;;;;;;5030248;28;20018;-91
2022/09/14 09:23:34;;;;;;;14.77;4.72;;;;;;;;;;5023952;28;20037;-91
2022/09/14 09:26:13;;;;;;;14.63;4.75;;;;;;;;;;5013042;28;20058;-89
2022/09/14 09:28:42;;;;;;;12.55;7.30;;;;;;;;;;5019857;28;20026;-91
2022/09/14 09:31:11;;;;;;;17.00;4.68;;;;;;;;;;5015016;28;20034;-91
2022/09/14 09:33:37;;;;;;;16.50;5.10;;;;;;;;;;5020660;28;20032;-90
2022/09/14 09:36:06;;;;;;;18.88;5.60;;;;;;;;;;5012968;28;20133;-91
2022/09/14 09:38:33;;;;;;;16.60;4.82;;;;;;;;;;5012885;28;20450;-92
2022/09/14 09:41:12;;;;;;;12.60;4.10;;;;;;;;;;5011356;28;20026;-91
2022/09/14 09:43:57;;;;;;;17.10;5.53;;;;;;;;;;5021934;28;20057;-91
2022/09/14 09:46:24;;;;;;;22.38;5.03;;;;;;;;;;5008396;28;20014;-91
2022/09/14 09:48:50;;;;;;;11.50;4.28;;;;;;;;;;5017389;28;20117;-91
2022/09/14 09:51:27;;;;;;;10.88;4.43;;;;;;;;;;5028443;28;20041;-91
2022/09/14 09:53:55;;;;;;;10.55;4.25;;;;;;;;;;5012514;28;20018;-91
2022/09/14 09:56:28;;;;;;;10.93;4.82;;;;;;;;;;5022383;28;20484;-91
2022/09/14 09:58:54;;;;;;;12.57;4.40;;;;;;;;;;5005661;28;20018;-90
2022/09/14 10:01:26;;;;;;;9.35;4.80;;;;;;;;;;5035667;28;20469;-90
2022/09/14 10:04:06;;;;;;;8.50;4.68;;;;;;;;;;5020246;28;20030;-91
2022/09/14 10:06:40;;;;;;;10.50;5.50;;;;;;;;;;5027326;28;20088;-91
2022/09/14 10:09:11;;;;;;;12.05;5.20;;;;;;;;;;5003948;28;20033;-89
2022/09/14 10:11:38;;;;;;;9.90;5.40;;;;;;;;;;5032416;28;20425;-92
2022/09/14 10:14:05;;;;;;;11.68;5.18;;;;;;;;;;5032242;28;20021;-90
2022/09/14 10:16:40;;;;;;;12.23;5.88;;;;;;;;;;5033594;28;20022;-91
2022/09/14 10:19:13;;;;;;;13.45;5.47;;;;;;;;;;5046075;28;20108;-92
2022/09/14 10:21:59;;;;;;;12.20;5.60;;;;;;;;;;5030686;28;20052;-91
2022/09/14 10:24:25;;;;;;;8.57;5.32;;;;;;;;;;5032862;28;20488;-90
2022/09/14 10:26:51;;;;;;;15.52;5.70;;;;;;;;;;5013867;28;20022;-91
2022/09/14 10:29:41;;;;;;;8.90;5.30;;;;;;;;;;5026905;28;20033;-89
2022/09/14 10:32:16;;;;;;;8.70;5.55;;;;;;;;;;5023148;28;20125;-91
2022/09/14 10:34:42;;;;;;;10.02;5.85;;;;;;;;;;5017192;28;20113;-90
2022/09/14 10:37:30;;;;;;;11.57;5.57;;;;;;;;;;5018877;28;20036;-90
2022/09/14 10:40:17;;;;;;;9.75;6.03;;;;;;;;;;4975779;28;20528;-90
2022/09/14 10:43:02;;;;;;;12.30;6.35;;;;;;;;;;5019119;28;20041;-90
2022/09/14 10:45:30;;;;;;;21.75;8.45;;;;;;;;;;5018992;28;20108;-90
2022/09/14 10:48:11;;;;;;;14.85;8.23;;;;;;;;;;5005584;28;20478;-92
2022/09/14 10:50:40;;;;;;;11.65;7.03;;;;;;;;;;5030973;28;20052;-91
2022/09/14 10:53:12;;;;;;;10.98;7.68;;;;;;;;;;5043481;28;20500;-91
2022/09/14 10:56:01;;;;;;;12.02;6.88;;;;;;;;;;5016135;28;20022;-93
2022/09/14 10:58:55;;;;;;;15.13;7.68;;;;;;;;;;5007535;28;20030;-91
2022/09/14 11:01:31;;;;;;;11.52;8.13;;;;;;;;;;5035945;28;20102;-91
2022/09/14 11:04:15;;;;;;;11.18;7.05;;;;;;;;;;5018864;28;20026;-91
2022/09/14 11:06:48;;;;;;;13.85;6.20;;;;;;;;;;5008734;28;20049;-91
2022/09/14 11:09:17;;;;;;;9.50;5.93;;;;;;;;;;5034727;28;20030;-93
2022/09/14 11:12:09;;;;;;;8.15;5.50;;;;;;;;;;5020512;28;20026;-93
2022/09/14 11:14:54;;;;;;;8.65;5.55;;;;;;;;;;4999263;28;20057;-93
2022/09/14 11:17:38;;;;;;;12.00;6.50;;;;;;;;;;5038154;28;20027;-92
2022/09/14 11:20:14;;;;;;;7.68;5.95;;;;;;;;;;5022518;28;20026;-91
2022/09/14 11:22:43;;;;;;;10.77;6.07;;;;;;;;;;5028582;28;20049;-90
2022/09/14 11:25:12;;;;;;;6.93;4.80;;;;;;;;;;5036457;28;20033;-91
2022/09/14 11:27:42;;;;;;;8.20;5.13;;;;;;;;;;5022652;28;20029;-91
2022/09/14 11:30:11;;;;;;;9.98;5.30;;;;;;;;;;5025782;28;20022;-90
2022/09/14 11:32:40;;;;;;;9.68;5.70;;;;;;;;;;5037786;28;20044;-90
2022/09/14 11:35:06;;;;;;;11.63;5.45;;;;;;;;;;5026120;28;20044;-90
2022/09/14 11:37:36;;;;;;;9.38;5.78;;;;;;;;;;5018700;28;20025;-90
2022/09/14 11:40:06;;;;;;;14.35;6.28;;;;;;;;;;5029241;28;20030;-89
2022/09/14 11:42:48;;;;;;;9.82;6.15;;;;;;;;;;5021690;28;20116;-91
2022/09/14 11:45:23;;;;;;;12.55;5.45;;;;;;;;;;5036178;28;20037;-90
2022/09/14 11:47:55;;;;;;;9.68;5.82;;;;;;;;;;5039972;28;20396;-92
2022/09/14 11:50:26;;;;;;;15.10;4.90;;;;;;;;;;5040907;28;20021;-92
2022/09/14 11:52:59;;;;;;;10.13;5.22;;;;;;;;;;5030351;28;20101;-92
2022/09/14 11:55:26;;;;;;;11.45;5.53;;;;;;;;;;5031662;28;20029;-92
2022/09/14 11:57:52;;;;;;;12.52;5.78;;;;;;;;;;5025446;28;20605;-92
2022/09/14 12:00:24;;;;;;;21.45;6.57;;;;;;;;;;5026157;28;20067;-91
2022/09/14 12:03:09;;;;;;;14.87;7.10;;;;;;;;;;5044809;28;20034;-93
2022/09/14 12:05:35;;;;;;;8.20;4.93;;;;;;;;;;5031121;28;20103;-91
2022/09/14 12:08:03;;;;;;;9.13;5.97;;;;;;;;;;5033688;28;20049;-91
2022/09/14 12:10:29;;;;;;;15.05;6.95;;;;;;;;;;5031437;28;20014;-92
2022/09/14 12:13:05;;;;;;;11.15;5.47;;;;;;;;;;5038162;28;20539;-92
2022/09/14 12:15:39;;;;;;;8.13;5.35;;;;;;;;;;5040352;28;20017;-91
2022/09/14 12:18:05;;;;;;;11.00;6.13;;;;;;;;;;5029983;28;20091;-91
2022/09/14 12:20:31;;;;;;;13.93;6.30;;;;;;;;;;5026648;28;20021;-94
2022/09/14 12:23:05;;;;;;;16.63;4.90;;;;;;;;;;5032740;28;20030;-92
2022/09/14 12:25:31;;;;;;;8.95;4.85;;;;;;;;;;5032798;28;20041;-92
2022/09/14 12:27:57;;;;;;;17.95;5.20;;;;;;;;;;5051227;28;20017;-93
2022/09/14 12:30:32;;;;;;;16.98;7.57;;;;;;;;;;5037195;28;20026;-95
2022/09/14 12:32:59;;;;;;;15.18;5.72;;;;;;;;;;5038443;28;20025;-93
2022/09/14 12:35:34;;;;;;;15.52;6.28;;;;;;;;;;5039333;28;20029;-93
2022/09/14 12:38:20;;;;;;;11.73;7.25;;;;;;;;;;5034113;28;20022;-90
2022/09/14 12:40:46;;;;;;;16.20;8.80;;;;;;;;;;5021620;28;20021;-89
2022/09/14 12:43:31;;;;;;;10.98;7.57;;;;;;;;;;5031700;28;20968;-90
2022/09/14 12:46:12;;;;;;;16.63;7.25;;;;;;;;;;5040657;28;20021;-90
2022/09/14 12:48:44;;;;;;;12.88;6.95;;;;;;;;;;5034627;28;20021;-89
2022/09/14 12:51:13;;;;;;;14.32;6.18;;;;;;;;;;5029971;28;20052;-90
2022/09/14 12:53:40;;;;;;;16.08;6.85;;;;;;;;;;5018367;28;20029;-91
2022/09/14 12:56:16;;;;;;;12.63;7.57;;;;;;;;;;5014613;28;20026;-90
2022/09/14 12:58:49;;;;;;;11.93;7.70;;;;;;;;;;5027804;28;20029;-92
2022/09/14 13:01:24;;;;;;;14.43;7.28;;;;;;;;;;5033040;28;20350;-91
2022/09/14 13:03:53;;;;;;;14.00;8.48;;;;;;;;;;5015385;28;20041;-92
2022/09/14 13:06:20;;;;;;;14.40;7.82;;;;;;;;;;5012635;28;20141;-92
2022/09/14 13:08:54;;;;;;;13.00;5.72;;;;;;;;;;5031717;28;20371;-91
2022/09/14 13:11:25;;;;;;;13.27;6.32;;;;;;;;;;5023623;28;20033;-91
2022/09/14 13:13:52;;;;;;;11.97;7.33;;;;;;;;;;5012954;28;20101;-91
2022/09/14 13:16:26;;;;;;;15.60;6.70;;;;;;;;;;5031108;28;20056;-90
2022/09/14 13:19:00;;;;;;;11.90;6.30;;;;;;;;;;5025480;28;20422;-91
2022/09/14 13:21:26;;;;;;;10.38;6.22;;;;;;;;;;5016713;28;20508;-90
2022/09/14 13:23:52;;;;;;;10.57;6.80;;;;;;;;;;5020678;28;20367;-91
2022/09/14 13:26:24;;;;;;;14.05;6.95;;;;;;;;;;5030427;28;20029;-93
2022/09/14 13:28:51;;;;;;;8.30;5.85;;;;;;;;;;5025510;28;20045;-90
2022/09/14 13:31:18;;;;;;;10.15;6.20;;;;;;;;;;5048824;28;20025;-89
2022/09/14 13:33:48;;;;;;;13.27;6.32;;;;;;;;;;5040059;28;20032;-89
2022/09/14 13:36:17;;;;;;;10.98;6.38;;;;;;;;;;5039156;28;20029;-90
2022/09/14 13:38:43;;;;;;;11.68;6.10;;;;;;;;;;5012723;28;20033;-90
2022/09/14 13:41:15;;;;;;;9.48;5.10;;;;;;;;;;5013009;28;20022;-90
2022/09/14 13:43:42;;;;;;;14.88;6.10;;;;;;;;;;5014440;28;20038;-90
2022/09/14 13:46:10;;;;;;;10.13;5.38;;;;;;;;;;5030949;28;20048;-92
2022/09/14 13:48:38;;;;;;;17.48;5.85;;;;;;;;;;5030212;28;20040;-88
2022/09/14 13:51:05;;;;;;;7.68;5.97;;;;;;;;;;5019898;28;20052;-88
2022/09/14 13:53:51;;;;;;;8.55;5.70;;;;;;;;;;5002980;28;20077;-90
2022/09/14 13:56:31;;;;;;;8.10;5.97;;;;;;;;;;5008603;28;20234;-89
2022/09/14 13:59:06;;;;;;;13.40;6.28;;;;;;;;;;5020148;28;20037;-88
2022/09/14 14:01:34;;;;;;;13.15;6.53;;;;;;;;;;5027759;28;20028;-89
2022/09/14 14:04:01;;;;;;;17.27;7.35;;;;;;;;;;5023576;28;20028;-88
2022/09/14 14:06:28;;;;;;;15.10;7.25;;;;;;;;;;5019181;28;20060;-88
2022/09/14 14:09:00;;;;;;;16.55;6.43;;;;;;;;;;5023668;28;20026;-88
2022/09/14 14:11:31;;;;;;;11.82;5.47;;;;;;;;;;5024990;28;20029;-88
2022/09/14 14:14:09;;;;;;;12.73;5.75;;;;;;;;;;5002363;28;20076;-88
2022/09/14 14:16:35;;;;;;;9.52;4.70;;;;;;;;;;5029011;28;20045;-86
2022/09/14 14:19:01;;;;;;;9.93;4.35;;;;;;;;;;5011163;28;20018;-88
2022/09/14 14:21:29;;;;;;;10.10;4.07;;;;;;;;;;5033816;28;20021;-88
2022/09/14 14:24:14;;;;;;;16.58;5.10;;;;;;;;;;5018795;28;20129;-88
2022/09/14 14:26:47;;;;;;;12.10;4.97;;;;;;;;;;5035804;28;20022;-89
2022/09/14 14:29:15;;;;;;;8.98;4.70;;;;;;;;;;5017424;28;20033;-88
2022/09/14 14:31:41;;;;;;;9.43;4.93;;;;;;;;;;5017915;28;20018;-89
2022/09/14 14:34:18;;;;;;;12.13;4.10;;;;;;;;;;5017787;28;20026;-88
2022/09/14 14:36:46;;;;;;;13.20;3.67;;;;;;;;;;5017625;28;20053;-89
2022/09/14 14:39:13;;;;;;;13.45;4.15;;;;;;;;;;5022238;28;20022;-89
2022/09/14 14:41:39;;;;;;;14.32;5.00;;;;;;;;;;5015038;28;20109;-89
2022/09/14 14:44:06;;;;;;;14.63;4.55;;;;;;;;;;5030871;28;20025;-88